LFRZ/SNR METAR and TAF weather

Enter ICAO airport designator
Station Type Date Time Source
LFRZ METAR 2019/10/20 19:00 UTC NOAA

LFRZ 201900Z AUTO 32004KT 280V360 9999 ////// 11/10 Q1011


Station Type Date Time Source
LFRZ Decoded METAR 2019/10/20 19:00 UTC NOAA

St-Nazaire, France (LFRZ) 47-19N 002-10W 4M
Oct 20, 2019 - 03:00 PM EDT / 2019.10.20 1900 UTC
Wind: from the NW (320 degrees) at 5 MPH (4 KT) (direction variable):0
Visibility: greater than 7 mile(s):0
Temperature: 51 F (11 C)
Dew Point: 50 F (10 C)
Relative Humidity: 93%
Pressure (altimeter): 29.85 in. Hg (1011 hPa)
ob: LFRZ 201900Z AUTO 32004KT 280V360 9999 ////// 11/10 Q1011
cycle: 19

Station Type Date Time Source
LFRZ TAF 2019/10/20 18:21 UTC NOAA

TAF LFRZ 201700Z 2018/2118 36007KT 9999 SCT020 BKN040
TEMPO 2018/2021 -SHRA SCT020TCU PROB30
TEMPO 2106/2109 4000 BR

Example: see airport list